createdAt,value
2023-01-09T00:01:23.493Z,85.83
2023-01-09T00:03:51.256Z,85.98
2023-01-09T00:06:18.646Z,85.81
2023-01-09T00:08:46.117Z,85.80
2023-01-09T00:11:13.533Z,85.78
2023-01-09T00:13:40.906Z,85.87
2023-01-09T00:16:09.648Z,85.50
2023-01-09T00:18:38.355Z,85.97
2023-01-09T00:21:08.021Z,85.31
2023-01-09T00:23:35.553Z,85.39
2023-01-09T00:26:05.120Z,85.19
2023-01-09T00:28:33.160Z,84.80
2023-01-09T00:31:01.357Z,84.85
2023-01-09T00:33:31.113Z,85.27
2023-01-09T00:35:59.817Z,84.85
2023-01-09T00:38:27.217Z,85.53
2023-01-09T00:40:56.419Z,85.62
2023-01-09T00:43:27.409Z,85.52
2023-01-09T00:45:54.878Z,85.55
2023-01-09T00:48:26.966Z,86.24
2023-01-09T00:50:58.504Z,86.29
2023-01-09T00:53:32.301Z,85.93
2023-01-09T00:56:04.505Z,86.16
2023-01-09T00:58:33.430Z,86.24
2023-01-09T01:01:00.970Z,86.21
2023-01-09T01:03:29.585Z,86.26
2023-01-09T01:06:14.643Z,86.12
2023-01-09T01:08:43.350Z,86.11
2023-01-09T01:11:12.369Z,86.27
2023-01-09T01:13:41.141Z,86.33
2023-01-09T01:16:10.798Z,86.70
2023-01-09T01:18:39.005Z,86.62
2023-01-09T01:21:07.667Z,87.17
2023-01-09T01:23:35.504Z,86.48
2023-01-09T01:26:07.171Z,86.39
2023-01-09T01:28:34.915Z,86.17
2023-01-09T01:31:02.518Z,86.20
2023-01-09T01:33:30.851Z,86.23
2023-01-09T01:36:03.092Z,85.74
2023-01-09T01:38:30.889Z,85.36
2023-01-09T01:40:58.305Z,85.64
2023-01-09T01:43:27.164Z,85.73
2023-01-09T01:45:54.629Z,85.21
2023-01-09T01:48:26.494Z,84.96
2023-01-09T01:50:58.988Z,84.82
2023-01-09T01:53:32.631Z,85.14
2023-01-09T01:56:07.419Z,84.77
2023-01-09T01:58:39.701Z,84.70
2023-01-09T02:01:07.433Z,84.62
2023-01-09T02:03:35.919Z,84.98
2023-01-09T02:06:04.877Z,85.12
2023-01-09T02:08:32.277Z,84.74
2023-01-09T02:10:59.812Z,84.78
2023-01-09T02:13:28.427Z,84.75
2023-01-09T02:16:15.880Z,85.23
2023-01-09T02:18:51.916Z,84.48
2023-01-09T02:21:32.011Z,84.79
2023-01-09T02:24:11.694Z,85.07
2023-01-09T02:26:57.067Z,84.64
2023-01-09T02:29:46.922Z,83.94
2023-01-09T02:32:27.015Z,84.46
2023-01-09T02:35:06.965Z,84.05
2023-01-09T02:37:42.790Z,84.35
2023-01-09T02:40:18.844Z,83.65
2023-01-09T02:42:48.082Z,83.20
2023-01-09T02:45:15.952Z,82.87
2023-01-09T02:47:46.390Z,83.14
2023-01-09T02:50:20.837Z,82.66
2023-01-09T02:53:25.613Z,82.95
2023-01-09T02:56:04.127Z,83.64
2023-01-09T02:58:50.349Z,83.67
2023-01-09T03:01:28.044Z,84.31
2023-01-09T03:04:05.722Z,84.92
2023-01-09T03:06:41.264Z,85.64
2023-01-09T03:09:15.621Z,86.22
2023-01-09T03:11:48.385Z,86.56
2023-01-09T03:14:19.321Z,87.14
2023-01-09T03:16:49.057Z,87.04
2023-01-09T03:19:20.753Z,87.69
2023-01-09T03:21:48.697Z,88.33
2023-01-09T03:24:16.643Z,88.17
2023-01-09T03:29:37.330Z,90.62
2023-01-09T03:32:04.888Z,90.91
2023-01-09T03:34:33.645Z,90.57
2023-01-09T03:37:01.695Z,90.72
2023-01-09T03:39:29.056Z,91.47
2023-01-09T03:41:56.448Z,90.97
2023-01-09T03:44:23.857Z,90.86
2023-01-09T03:46:51.229Z,91.74
2023-01-09T03:49:19.079Z,91.53
2023-01-09T03:51:47.749Z,91.38
2023-01-09T03:54:15.117Z,90.74
2023-01-09T03:56:42.468Z,91.13
2023-01-09T03:59:09.822Z,91.11
2023-01-09T04:01:37.337Z,92.13
2023-01-09T04:04:04.957Z,91.44
2023-01-09T04:06:32.331Z,91.44
2023-01-09T04:09:00.997Z,90.77
2023-01-09T04:11:28.383Z,90.99
2023-01-09T04:13:55.776Z,90.88
2023-01-09T04:16:23.173Z,91.20
2023-01-09T04:18:50.549Z,90.73
2023-01-09T04:21:17.965Z,90.49
2023-01-09T04:23:45.614Z,91.56
2023-01-09T04:26:14.352Z,90.74
2023-01-09T04:28:41.714Z,90.62
2023-01-09T04:31:09.196Z,91.34
2023-01-09T04:33:36.633Z,90.89
2023-01-09T04:36:04.367Z,90.53
2023-01-09T04:38:31.806Z,90.80
2023-01-09T04:40:59.378Z,91.20
2023-01-09T04:43:28.118Z,91.42
2023-01-09T04:45:55.574Z,91.33
2023-01-09T04:48:22.971Z,90.87
2023-01-09T04:50:50.333Z,91.08
2023-01-09T04:53:17.705Z,90.76
2023-01-09T04:55:45.075Z,91.16
2023-01-09T04:58:12.450Z,90.32
2023-01-09T05:00:41.141Z,90.64
2023-01-09T05:03:08.494Z,90.35
2023-01-09T05:05:35.870Z,90.07
2023-01-09T05:08:03.228Z,90.11
2023-01-09T05:10:30.614Z,89.62
2023-01-09T05:12:57.975Z,89.44
2023-01-09T05:15:28.142Z,89.71
2023-01-09T05:17:56.832Z,89.10
2023-01-09T05:20:24.200Z,89.06
2023-01-09T05:22:51.610Z,89.33
2023-01-09T05:25:18.950Z,88.54
2023-01-09T05:27:47.014Z,88.24
2023-01-09T05:30:18.105Z,88.33
2023-01-09T05:32:45.840Z,88.61
2023-01-09T05:35:14.670Z,88.19
2023-01-09T05:37:42.085Z,88.28
2023-01-09T05:40:11.329Z,87.83
2023-01-09T05:42:38.737Z,88.23
2023-01-09T05:45:07.406Z,88.23
2023-01-09T05:47:34.805Z,88.30
2023-01-09T05:50:02.185Z,87.97
2023-01-09T05:52:31.001Z,87.45
2023-01-09T05:54:58.397Z,87.22
2023-01-09T05:57:25.810Z,87.96
2023-01-09T05:59:53.169Z,87.89
2023-01-09T06:02:20.626Z,88.84
2023-01-09T06:04:48.485Z,88.24
2023-01-09T06:07:19.972Z,89.23
2023-01-09T06:09:50.266Z,88.25
2023-01-09T06:12:17.702Z,88.91
2023-01-09T06:14:45.051Z,88.43
2023-01-09T06:17:12.421Z,88.73
2023-01-09T06:19:39.798Z,88.05
2023-01-09T06:22:07.207Z,87.67
2023-01-09T06:24:34.587Z,87.61
2023-01-09T06:27:03.293Z,86.92
2023-01-09T06:29:30.835Z,86.92
2023-01-09T06:31:58.223Z,86.99
2023-01-09T06:34:26.052Z,87.38
2023-01-09T06:36:53.451Z,86.60
2023-01-09T06:39:21.064Z,86.47
2023-01-09T06:41:48.835Z,86.56
2023-01-09T06:44:17.603Z,86.25
2023-01-09T06:46:45.039Z,85.80
2023-01-09T06:49:12.428Z,85.67
2023-01-09T06:51:39.837Z,85.31
2023-01-09T06:54:07.298Z,85.10
2023-01-09T06:56:34.654Z,85.46
2023-01-09T06:59:02.193Z,85.34
2023-01-09T07:01:31.008Z,84.84
2023-01-09T07:03:58.569Z,85.06
2023-01-09T07:06:26.489Z,85.03
2023-01-09T07:08:54.062Z,85.52
2023-01-09T07:11:21.447Z,84.63
2023-01-09T07:13:49.015Z,84.71
2023-01-09T07:16:16.475Z,85.09
2023-01-09T07:18:45.268Z,85.06
2023-01-09T07:21:12.765Z,84.63
2023-01-09T07:23:40.315Z,84.37
2023-01-09T07:26:07.704Z,84.10
2023-01-09T07:28:35.109Z,83.93
2023-01-09T07:31:04.507Z,84.08
2023-01-09T07:33:32.157Z,84.45
2023-01-09T07:36:00.914Z,84.83
2023-01-09T07:38:28.370Z,84.39
2023-01-09T07:40:55.937Z,83.84
2023-01-09T07:43:23.372Z,84.29
2023-01-09T07:45:50.848Z,84.62
2023-01-09T07:48:18.230Z,84.44
2023-01-09T07:50:45.636Z,85.03
2023-01-09T07:53:14.542Z,84.94
2023-01-09T07:55:43.352Z,84.53
2023-01-09T07:58:10.826Z,84.41
2023-01-09T08:00:38.226Z,84.24
2023-01-09T08:03:06.308Z,83.59
2023-01-09T08:05:34.276Z,84.06
2023-01-09T08:08:01.962Z,83.77
2023-01-09T08:10:30.737Z,83.92
2023-01-09T08:12:58.147Z,84.26
2023-01-09T08:15:25.581Z,83.51
2023-01-09T08:17:53.009Z,83.10
2023-01-09T08:20:20.571Z,82.24
2023-01-09T08:22:50.544Z,82.79
2023-01-09T08:25:18.658Z,82.81
2023-01-09T08:27:47.809Z,82.21
2023-01-09T08:30:15.881Z,82.53
2023-01-09T08:32:43.256Z,82.93
2023-01-09T08:38:02.192Z,82.31
2023-01-09T08:40:33.345Z,82.38
2023-01-09T08:43:19.853Z,82.71
2023-01-09T08:46:05.715Z,81.80
2023-01-09T08:48:33.203Z,81.99
2023-01-09T08:51:00.596Z,81.64
2023-01-09T08:53:28.476Z,81.33
2023-01-09T08:55:56.224Z,82.05
2023-01-09T08:58:24.911Z,82.78
2023-01-09T09:00:52.342Z,81.80
2023-01-09T09:03:21.658Z,81.63
2023-01-09T09:05:49.149Z,81.35
2023-01-09T09:08:16.745Z,82.12
2023-01-09T09:10:44.302Z,81.23
2023-01-09T09:13:11.735Z,81.72
2023-01-09T09:15:40.593Z,80.58
2023-01-09T09:18:09.251Z,80.63
2023-01-09T09:20:38.605Z,79.86
2023-01-09T09:23:08.138Z,81.00
2023-01-09T09:25:38.169Z,82.18
2023-01-09T09:28:05.900Z,81.81
2023-01-09T09:30:33.660Z,82.98
2023-01-09T09:33:03.735Z,83.31
2023-01-09T09:35:32.397Z,82.57
2023-01-09T09:38:04.645Z,82.48
2023-01-09T09:40:47.983Z,83.21
2023-01-09T09:43:55.558Z,82.45
2023-01-09T09:46:29.092Z,83.62
2023-01-09T09:49:03.156Z,83.26
2023-01-09T09:51:44.784Z,83.18
2023-01-09T09:54:15.952Z,83.02
2023-01-09T09:56:50.466Z,84.18
2023-01-09T09:59:21.809Z,84.35
2023-01-09T10:01:55.963Z,83.59
2023-01-09T10:04:28.444Z,83.84
2023-01-09T10:06:59.689Z,84.04
2023-01-09T10:09:40.058Z,83.34
2023-01-09T10:12:28.443Z,83.08
2023-01-09T10:14:57.905Z,82.49
2023-01-09T10:17:55.146Z,81.36
2023-01-09T10:20:40.537Z,81.38
2023-01-09T10:23:25.263Z,81.38
2023-01-09T10:25:57.658Z,81.96
2023-01-09T10:28:49.779Z,81.69
2023-01-09T10:31:28.511Z,83.05
2023-01-09T10:34:09.739Z,83.63
2023-01-09T10:37:00.154Z,84.25
2023-01-09T10:39:35.557Z,85.32
2023-01-09T10:42:11.089Z,86.06
2023-01-09T10:44:47.050Z,88.16
2023-01-09T10:47:18.095Z,90.23
2023-01-09T10:49:48.712Z,92.58
2023-01-09T10:52:20.481Z,93.21
2023-01-09T10:54:55.782Z,94.79
2023-01-09T10:57:42.049Z,94.40
2023-01-09T11:00:17.005Z,93.52
2023-01-09T11:02:44.635Z,94.36
2023-01-09T11:05:16.497Z,93.68
2023-01-09T11:07:47.340Z,93.16
2023-01-09T11:10:16.253Z,91.29
2023-01-09T11:12:43.750Z,90.82
2023-01-09T11:15:28.996Z,89.27
2023-01-09T11:18:18.121Z,89.25
2023-01-09T11:20:46.046Z,89.54
2023-01-09T11:23:33.152Z,88.85
2023-01-09T11:26:02.779Z,87.34
2023-01-09T11:28:30.435Z,86.20
2023-01-09T11:31:03.117Z,86.79
2023-01-09T11:33:35.271Z,84.04
2023-01-09T11:36:07.926Z,82.99
2023-01-09T11:38:50.053Z,83.61
2023-01-09T11:41:20.183Z,82.57
2023-01-09T11:43:50.260Z,82.44
2023-01-09T11:46:35.589Z,80.35
2023-01-09T11:49:05.212Z,79.96
2023-01-09T11:51:34.165Z,79.89
2023-01-09T11:54:17.350Z,78.97
2023-01-09T11:56:45.683Z,78.13
2023-01-09T11:59:15.004Z,78.65
2023-01-09T12:02:13.050Z,77.85
2023-01-09T12:04:46.144Z,76.63
2023-01-09T12:07:38.396Z,75.32
2023-01-09T12:10:24.372Z,75.14
2023-01-09T12:13:02.246Z,74.37
2023-01-09T12:15:34.240Z,74.14
2023-01-09T12:18:26.893Z,73.95
2023-01-09T12:21:06.202Z,73.08
2023-01-09T12:23:48.043Z,74.03
2023-01-09T12:26:21.843Z,73.57
2023-01-09T12:29:06.041Z,74.09
2023-01-09T12:31:49.614Z,73.97
2023-01-09T12:34:35.602Z,74.08
2023-01-09T12:37:13.916Z,74.35
2023-01-09T12:39:52.684Z,74.88
2023-01-09T12:42:35.033Z,74.50
2023-01-09T12:45:10.045Z,74.28
2023-01-09T12:47:46.054Z,73.95
2023-01-09T12:50:32.547Z,75.60
2023-01-09T12:53:09.235Z,74.35
2023-01-09T12:55:40.733Z,73.90
2023-01-09T12:58:19.664Z,73.78
2023-01-09T13:00:51.396Z,74.92
2023-01-09T13:03:24.724Z,76.18
2023-01-09T13:05:54.256Z,74.40
2023-01-09T13:08:27.207Z,74.25
2023-01-09T13:11:01.590Z,74.03
2023-01-09T13:13:43.176Z,74.04
2023-01-09T13:16:15.956Z,74.40
2023-01-09T13:18:48.208Z,72.87
2023-01-09T13:21:16.409Z,73.19
2023-01-09T13:23:50.414Z,73.54
2023-01-09T13:26:22.562Z,74.11
2023-01-09T13:28:54.894Z,74.04
2023-01-09T13:31:40.379Z,74.24
2023-01-09T13:34:21.511Z,74.30
2023-01-09T13:36:52.743Z,74.71
2023-01-09T13:39:22.589Z,74.51
2023-01-09T13:42:12.531Z,74.00
2023-01-09T13:44:41.722Z,74.69
2023-01-09T13:47:18.358Z,74.24
2023-01-09T13:50:01.620Z,74.62
2023-01-09T13:52:31.434Z,75.43
2023-01-09T13:55:24.586Z,74.78
2023-01-09T13:58:22.513Z,74.87
2023-01-09T14:00:55.797Z,75.35
2023-01-09T14:03:26.864Z,75.02
2023-01-09T14:06:18.454Z,75.66
2023-01-09T14:08:48.708Z,75.10
2023-01-09T14:11:27.314Z,75.49
2023-01-09T14:14:18.817Z,75.04
2023-01-09T14:16:47.918Z,75.23
2023-01-09T14:19:29.979Z,75.10
2023-01-09T14:21:58.768Z,75.13
2023-01-09T14:24:29.789Z,76.00
2023-01-09T14:26:59.514Z,76.17
2023-01-09T14:29:44.527Z,75.27
2023-01-09T14:32:45.936Z,76.28
2023-01-09T14:35:23.482Z,75.74
2023-01-09T14:38:06.332Z,76.14
2023-01-09T14:40:34.860Z,75.66
2023-01-09T14:43:13.767Z,75.81
2023-01-09T14:45:47.968Z,75.90
2023-01-09T14:48:18.332Z,75.41
2023-01-09T14:50:51.013Z,75.94
2023-01-09T14:53:22.058Z,74.96
2023-01-09T14:55:53.062Z,73.46
2023-01-09T14:58:23.566Z,73.18
2023-01-09T15:00:56.859Z,73.36
2023-01-09T15:03:30.773Z,74.82
2023-01-09T15:05:58.622Z,74.10
2023-01-09T15:08:28.670Z,73.86
2023-01-09T15:10:58.845Z,73.90
2023-01-09T15:13:31.778Z,73.50
2023-01-09T15:16:01.052Z,73.70
2023-01-09T15:18:32.492Z,73.74
2023-01-09T15:21:02.888Z,73.29
2023-01-09T15:23:32.123Z,73.69
2023-01-09T15:26:13.505Z,74.47
2023-01-09T15:28:43.349Z,73.91
2023-01-09T15:31:15.088Z,73.62
2023-01-09T15:33:46.392Z,74.50
2023-01-09T15:36:18.581Z,74.98
2023-01-09T15:38:47.516Z,75.17
2023-01-09T15:41:35.335Z,76.25
2023-01-09T15:44:03.896Z,76.13
2023-01-09T15:46:31.379Z,77.05
2023-01-09T15:49:01.125Z,77.45
2023-01-09T15:51:28.779Z,78.11
2023-01-09T15:53:58.439Z,77.30
2023-01-09T15:56:30.514Z,76.99
2023-01-09T15:58:59.613Z,77.12
2023-01-09T16:01:30.681Z,77.18
2023-01-09T16:04:06.686Z,78.06
2023-01-09T16:06:37.151Z,77.50
2023-01-09T16:09:06.025Z,77.25
2023-01-09T16:11:35.979Z,77.91
2023-01-09T16:14:13.573Z,77.41
2023-01-09T16:16:42.129Z,78.26
2023-01-09T16:19:33.243Z,78.53
2023-01-09T16:22:02.187Z,79.07
2023-01-09T16:24:38.991Z,79.39
2023-01-09T16:27:24.057Z,79.45
2023-01-09T16:29:57.401Z,80.29
2023-01-09T16:32:28.401Z,80.32
2023-01-09T16:34:58.864Z,80.49
2023-01-09T16:37:27.076Z,80.88
2023-01-09T16:40:25.721Z,81.29
2023-01-09T16:43:00.735Z,81.46
2023-01-09T16:45:29.589Z,81.86
2023-01-09T16:47:58.002Z,82.49
2023-01-09T16:50:26.986Z,83.45
2023-01-09T16:52:54.438Z,83.84
2023-01-09T16:55:21.805Z,83.87
2023-01-09T16:57:49.379Z,84.38
2023-01-09T17:00:19.669Z,84.35
2023-01-09T17:02:48.007Z,83.75
2023-01-09T17:05:15.487Z,83.97
2023-01-09T17:07:44.250Z,84.17
2023-01-09T17:10:20.404Z,84.19
2023-01-09T17:12:47.791Z,84.80
2023-01-09T17:15:15.295Z,84.39
2023-01-09T17:17:43.112Z,85.02
2023-01-09T17:20:21.056Z,84.41
2023-01-09T17:22:49.617Z,83.85
2023-01-09T17:25:35.182Z,84.30
2023-01-09T17:28:20.890Z,84.72
2023-01-09T17:30:48.268Z,85.00
2023-01-09T17:33:16.843Z,84.95
2023-01-09T17:35:45.086Z,85.29
2023-01-09T17:38:15.539Z,85.35
2023-01-09T17:40:43.861Z,85.19
2023-01-09T17:43:15.076Z,85.56
2023-01-09T17:45:42.805Z,85.46
2023-01-09T17:48:16.134Z,85.54
2023-01-09T17:50:43.560Z,85.78
2023-01-09T17:53:10.969Z,86.27
2023-01-09T17:55:40.818Z,85.85
2023-01-09T17:58:08.545Z,86.52
2023-01-09T18:00:37.497Z,87.25
2023-01-09T18:03:07.435Z,86.62
2023-01-09T18:05:37.078Z,85.95
2023-01-09T18:08:05.692Z,85.71
2023-01-09T18:10:33.140Z,85.03
2023-01-09T18:13:01.846Z,84.89
2023-01-09T18:15:29.279Z,84.81
2023-01-09T18:17:56.673Z,84.80
2023-01-09T18:20:24.843Z,83.87
2023-01-09T18:22:55.934Z,83.75
2023-01-09T18:25:23.316Z,83.21
2023-01-09T18:27:51.766Z,82.69
2023-01-09T18:30:20.589Z,82.76
2023-01-09T18:32:47.939Z,81.51
2023-01-09T18:35:15.311Z,81.70
2023-01-09T18:37:42.729Z,81.29
2023-01-09T18:40:11.246Z,81.40
2023-01-09T18:42:40.235Z,81.06
2023-01-09T18:45:08.760Z,81.22
2023-01-09T18:47:37.438Z,81.31
2023-01-09T18:50:05.376Z,80.55
2023-01-09T18:52:32.831Z,80.45
2023-01-09T18:55:00.181Z,80.58
2023-01-09T18:57:27.999Z,80.31
2023-01-09T18:59:55.379Z,80.89
2023-01-09T19:02:25.359Z,80.58
2023-01-09T19:04:54.277Z,80.94
2023-01-09T19:07:21.727Z,81.37
2023-01-09T19:09:49.194Z,81.06
2023-01-09T19:12:16.559Z,80.94
2023-01-09T19:14:44.040Z,80.46
2023-01-09T19:17:11.402Z,80.85
2023-01-09T19:19:38.825Z,79.83
2023-01-09T19:22:07.712Z,79.89
2023-01-09T19:24:35.358Z,79.93
2023-01-09T19:27:02.799Z,79.66
2023-01-09T19:29:30.234Z,79.37
2023-01-09T19:31:58.705Z,79.21
2023-01-09T19:34:26.346Z,79.19
2023-01-09T19:36:53.857Z,78.82
2023-01-09T19:39:22.736Z,78.80
2023-01-09T19:41:50.085Z,78.88
2023-01-09T19:44:18.929Z,78.82
2023-01-09T19:46:46.328Z,78.96
2023-01-09T19:49:13.679Z,79.43
2023-01-09T19:51:42.315Z,79.22
2023-01-09T19:54:11.254Z,78.65
2023-01-09T19:56:43.813Z,78.72
2023-01-09T19:59:13.457Z,78.84
2023-01-09T20:01:42.488Z,78.90
2023-01-09T20:04:14.931Z,79.13
2023-01-09T20:06:43.745Z,77.98
2023-01-09T20:09:12.241Z,77.95
2023-01-09T20:11:41.839Z,77.90
2023-01-09T20:14:12.014Z,78.07
2023-01-09T20:16:39.442Z,78.03
2023-01-09T20:19:08.561Z,78.40
2023-01-09T20:21:36.896Z,78.75
2023-01-09T20:24:06.115Z,78.48
2023-01-09T20:26:34.938Z,78.30
2023-01-09T20:29:04.165Z,78.58
2023-01-09T20:31:32.862Z,78.73
2023-01-09T20:34:00.602Z,78.78
2023-01-09T20:36:30.068Z,79.07
2023-01-09T20:38:58.982Z,78.99
2023-01-09T20:41:26.568Z,78.88
2023-01-09T20:43:55.903Z,79.18
2023-01-09T20:46:27.805Z,78.69
2023-01-09T20:48:56.513Z,79.08
2023-01-09T20:51:23.939Z,78.73
2023-01-09T20:53:55.566Z,78.71
2023-01-09T20:56:24.106Z,78.45
2023-01-09T20:58:51.802Z,77.91
2023-01-09T21:01:20.112Z,78.34
2023-01-09T21:03:49.435Z,78.08
2023-01-09T21:06:18.180Z,78.49
2023-01-09T21:08:47.015Z,78.99
2023-01-09T21:11:15.641Z,79.10
2023-01-09T21:13:43.532Z,79.47
2023-01-09T21:16:13.492Z,79.25
2023-01-09T21:18:42.344Z,78.69
2023-01-09T21:21:13.309Z,78.66
2023-01-09T21:23:42.234Z,78.64
2023-01-09T21:26:10.863Z,78.89
2023-01-09T21:28:45.752Z,78.50
2023-01-09T21:31:13.632Z,78.95
2023-01-09T21:33:41.252Z,79.26
2023-01-09T21:36:11.103Z,79.27
2023-01-09T21:38:38.758Z,79.20
2023-01-09T21:41:24.027Z,79.72
2023-01-09T21:44:09.208Z,80.35
2023-01-09T21:46:57.391Z,79.65
2023-01-09T21:49:26.174Z,79.72
2023-01-09T21:51:56.038Z,78.88
2023-01-09T21:54:24.400Z,78.41
2023-01-09T21:56:52.036Z,77.92
2023-01-09T21:59:19.745Z,78.94
2023-01-09T22:01:49.264Z,79.09
2023-01-09T22:04:18.073Z,79.03
2023-01-09T22:06:45.770Z,79.68
2023-01-09T22:09:15.131Z,80.46
2023-01-09T22:11:43.728Z,80.14
2023-01-09T22:14:13.138Z,79.80
2023-01-09T22:16:40.514Z,79.58
2023-01-09T22:19:07.890Z,78.91
2023-01-09T22:21:35.302Z,78.86
2023-01-09T22:24:02.796Z,78.54
2023-01-09T22:26:31.888Z,78.85
2023-01-09T22:28:59.306Z,78.12
2023-01-09T22:31:28.495Z,78.16
2023-01-09T22:33:58.436Z,78.49
2023-01-09T22:36:26.991Z,78.54
2023-01-09T22:38:54.978Z,78.99
2023-01-09T22:41:22.970Z,79.21
2023-01-09T22:43:51.599Z,79.33
2023-01-09T22:46:19.304Z,79.60
2023-01-09T22:48:47.936Z,79.14
2023-01-09T22:51:17.448Z,79.00
2023-01-09T22:53:45.518Z,79.51
2023-01-09T22:56:13.673Z,79.67
2023-01-09T22:58:41.258Z,79.78
2023-01-09T23:01:10.800Z,80.01
2023-01-09T23:03:38.189Z,79.40
2023-01-09T23:06:07.909Z,79.28
2023-01-09T23:08:35.963Z,79.31
2023-01-09T23:11:04.826Z,79.48
2023-01-09T23:13:32.380Z,79.74
2023-01-09T23:15:59.789Z,80.72
2023-01-09T23:18:28.911Z,80.43
2023-01-09T23:20:58.395Z,80.90
2023-01-09T23:23:27.401Z,80.46
2023-01-09T23:25:59.484Z,80.88
2023-01-09T23:28:27.699Z,79.80
2023-01-09T23:30:55.184Z,80.14
2023-01-09T23:33:22.720Z,79.91
2023-01-09T23:35:51.452Z,79.93
2023-01-09T23:38:18.821Z,80.11
2023-01-09T23:40:46.199Z,79.94
2023-01-09T23:43:14.221Z,79.71
2023-01-09T23:45:42.335Z,78.98
2023-01-09T23:48:11.319Z,78.96
2023-01-09T23:50:38.964Z,79.57
2023-01-09T23:53:07.642Z,79.85
2023-01-09T23:55:35.988Z,80.43
2023-01-09T23:58:03.936Z,79.81
